sensor_id;sensor_type;location;lat;lon;timestamp;P1;durP1;ratioP1;P2;durP2;ratioP2
51806;SDS011;37865;51.304;9.536;2023-06-26T00:01:26;12.13;;;8.30;;
51806;SDS011;37865;51.304;9.536;2023-06-26T00:03:54;9.68;;;7.88;;
51806;SDS011;37865;51.304;9.536;2023-06-26T00:06:20;11.70;;;9.05;;
51806;SDS011;37865;51.304;9.536;2023-06-26T00:08:45;17.90;;;8.25;;
51806;SDS011;37865;51.304;9.536;2023-06-26T00:11:10;9.70;;;8.52;;
51806;SDS011;37865;51.304;9.536;2023-06-26T00:13:35;9.02;;;8.13;;
51806;SDS011;37865;51.304;9.536;2023-06-26T00:16:01;9.75;;;7.72;;
51806;SDS011;37865;51.304;9.536;2023-06-26T00:18:28;17.13;;;7.82;;
51806;SDS011;37865;51.304;9.536;2023-06-26T00:20:53;11.30;;;8.35;;
51806;SDS011;37865;51.304;9.536;2023-06-26T00:23:19;9.75;;;8.43;;
51806;SDS011;37865;51.304;9.536;2023-06-26T00:25:44;8.55;;;7.75;;
51806;SDS011;37865;51.304;9.536;2023-06-26T00:28:09;11.65;;;8.35;;
51806;SDS011;37865;51.304;9.536;2023-06-26T00:30:35;10.45;;;9.40;;
51806;SDS011;37865;51.304;9.536;2023-06-26T00:33:00;8.02;;;7.28;;
51806;SDS011;37865;51.304;9.536;2023-06-26T00:35:26;14.73;;;8.85;;
51806;SDS011;37865;51.304;9.536;2023-06-26T00:37:51;11.30;;;9.50;;
51806;SDS011;37865;51.304;9.536;2023-06-26T00:40:16;14.25;;;8.45;;
51806;SDS011;37865;51.304;9.536;2023-06-26T00:42:42;13.45;;;9.38;;
51806;SDS011;37865;51.304;9.536;2023-06-26T00:45:07;11.02;;;9.02;;
51806;SDS011;37865;51.304;9.536;2023-06-26T00:47:32;11.50;;;9.75;;
51806;SDS011;37865;51.304;9.536;2023-06-26T00:49:58;12.27;;;9.25;;
51806;SDS011;37865;51.304;9.536;2023-06-26T00:52:23;15.45;;;10.40;;
51806;SDS011;37865;51.304;9.536;2023-06-26T00:54:49;10.05;;;9.07;;
51806;SDS011;37865;51.304;9.536;2023-06-26T00:57:16;13.50;;;9.35;;
51806;SDS011;37865;51.304;9.536;2023-06-26T00:59:42;11.88;;;9.23;;
51806;SDS011;37865;51.304;9.536;2023-06-26T01:02:07;10.20;;;9.23;;
51806;SDS011;37865;51.304;9.536;2023-06-26T01:04:34;14.07;;;8.82;;
51806;SDS011;37865;51.304;9.536;2023-06-26T01:06:59;17.10;;;9.80;;
51806;SDS011;37865;51.304;9.536;2023-06-26T01:09:27;13.63;;;9.38;;
51806;SDS011;37865;51.304;9.536;2023-06-26T01:11:52;10.68;;;9.20;;
51806;SDS011;37865;51.304;9.536;2023-06-26T01:14:18;17.55;;;11.13;;
51806;SDS011;37865;51.304;9.536;2023-06-26T01:16:43;9.70;;;8.23;;
51806;SDS011;37865;51.304;9.536;2023-06-26T01:19:14;13.73;;;9.88;;
51806;SDS011;37865;51.304;9.536;2023-06-26T01:21:49;12.00;;;9.13;;
51806;SDS011;37865;51.304;9.536;2023-06-26T01:24:22;15.82;;;9.65;;
51806;SDS011;37865;51.304;9.536;2023-06-26T01:26:52;10.93;;;9.07;;
51806;SDS011;37865;51.304;9.536;2023-06-26T01:29:19;11.35;;;9.02;;
51806;SDS011;37865;51.304;9.536;2023-06-26T01:31:46;14.50;;;9.68;;
51806;SDS011;37865;51.304;9.536;2023-06-26T01:34:15;11.75;;;9.68;;
51806;SDS011;37865;51.304;9.536;2023-06-26T01:36:41;9.70;;;8.80;;
51806;SDS011;37865;51.304;9.536;2023-06-26T01:39:07;11.82;;;8.82;;
51806;SDS011;37865;51.304;9.536;2023-06-26T01:41:33;10.23;;;9.10;;
51806;SDS011;37865;51.304;9.536;2023-06-26T01:46:39;18.00;;;9.70;;
51806;SDS011;37865;51.304;9.536;2023-06-26T01:49:15;13.88;;;9.63;;
51806;SDS011;37865;51.304;9.536;2023-06-26T01:51:51;12.95;;;10.27;;
51806;SDS011;37865;51.304;9.536;2023-06-26T01:54:23;13.85;;;10.63;;
51806;SDS011;37865;51.304;9.536;2023-06-26T01:56:51;26.33;;;10.30;;
51806;SDS011;37865;51.304;9.536;2023-06-26T01:59:18;11.65;;;8.68;;
51806;SDS011;37865;51.304;9.536;2023-06-26T02:01:46;13.55;;;9.65;;
51806;SDS011;37865;51.304;9.536;2023-06-26T02:04:12;10.23;;;9.10;;
51806;SDS011;37865;51.304;9.536;2023-06-26T02:06:37;10.30;;;8.73;;
51806;SDS011;37865;51.304;9.536;2023-06-26T02:09:03;12.48;;;8.57;;
51806;SDS011;37865;51.304;9.536;2023-06-26T02:11:28;11.75;;;9.48;;
51806;SDS011;37865;51.304;9.536;2023-06-26T02:13:54;14.77;;;9.57;;
51806;SDS011;37865;51.304;9.536;2023-06-26T02:16:19;16.38;;;9.68;;
51806;SDS011;37865;51.304;9.536;2023-06-26T02:18:44;14.27;;;9.70;;
51806;SDS011;37865;51.304;9.536;2023-06-26T02:21:10;11.15;;;10.07;;
51806;SDS011;37865;51.304;9.536;2023-06-26T02:23:35;16.65;;;11.50;;
51806;SDS011;37865;51.304;9.536;2023-06-26T02:26:01;14.70;;;10.40;;
51806;SDS011;37865;51.304;9.536;2023-06-26T02:28:26;12.52;;;9.73;;
51806;SDS011;37865;51.304;9.536;2023-06-26T02:30:51;12.75;;;9.82;;
51806;SDS011;37865;51.304;9.536;2023-06-26T02:33:16;14.60;;;9.52;;
51806;SDS011;37865;51.304;9.536;2023-06-26T02:35:42;11.07;;;9.57;;
51806;SDS011;37865;51.304;9.536;2023-06-26T02:38:07;16.50;;;10.48;;
51806;SDS011;37865;51.304;9.536;2023-06-26T02:40:33;11.13;;;9.57;;
51806;SDS011;37865;51.304;9.536;2023-06-26T02:42:58;12.43;;;10.18;;
51806;SDS011;37865;51.304;9.536;2023-06-26T02:45:24;23.58;;;9.18;;
51806;SDS011;37865;51.304;9.536;2023-06-26T02:47:49;9.98;;;9.07;;
51806;SDS011;37865;51.304;9.536;2023-06-26T02:50:14;17.45;;;9.73;;
51806;SDS011;37865;51.304;9.536;2023-06-26T02:52:40;14.80;;;9.88;;
51806;SDS011;37865;51.304;9.536;2023-06-26T02:55:05;14.02;;;9.75;;
51806;SDS011;37865;51.304;9.536;2023-06-26T02:57:30;13.07;;;11.02;;
51806;SDS011;37865;51.304;9.536;2023-06-26T02:59:56;23.90;;;11.15;;
51806;SDS011;37865;51.304;9.536;2023-06-26T03:02:21;17.35;;;11.90;;
51806;SDS011;37865;51.304;9.536;2023-06-26T03:04:46;24.73;;;11.05;;
51806;SDS011;37865;51.304;9.536;2023-06-26T03:07:11;12.55;;;10.07;;
51806;SDS011;37865;51.304;9.536;2023-06-26T03:09:37;16.42;;;10.02;;
51806;SDS011;37865;51.304;9.536;2023-06-26T03:12:02;13.38;;;11.25;;
51806;SDS011;37865;51.304;9.536;2023-06-26T03:14:28;11.88;;;10.63;;
51806;SDS011;37865;51.304;9.536;2023-06-26T03:16:55;15.43;;;11.32;;
51806;SDS011;37865;51.304;9.536;2023-06-26T03:19:22;13.40;;;10.93;;
51806;SDS011;37865;51.304;9.536;2023-06-26T03:21:48;20.52;;;11.48;;
51806;SDS011;37865;51.304;9.536;2023-06-26T03:24:13;13.93;;;10.32;;
51806;SDS011;37865;51.304;9.536;2023-06-26T03:26:38;11.38;;;10.25;;
51806;SDS011;37865;51.304;9.536;2023-06-26T03:29:04;11.05;;;9.95;;
51806;SDS011;37865;51.304;9.536;2023-06-26T03:31:29;16.92;;;11.82;;
51806;SDS011;37865;51.304;9.536;2023-06-26T03:33:54;15.35;;;10.18;;
51806;SDS011;37865;51.304;9.536;2023-06-26T03:36:20;11.63;;;10.10;;
51806;SDS011;37865;51.304;9.536;2023-06-26T03:38:45;10.52;;;9.25;;
51806;SDS011;37865;51.304;9.536;2023-06-26T03:41:10;10.18;;;8.73;;
51806;SDS011;37865;51.304;9.536;2023-06-26T03:43:36;11.05;;;9.90;;
51806;SDS011;37865;51.304;9.536;2023-06-26T03:46:01;12.30;;;10.18;;
51806;SDS011;37865;51.304;9.536;2023-06-26T03:48:26;12.43;;;10.15;;
51806;SDS011;37865;51.304;9.536;2023-06-26T03:50:52;13.80;;;10.05;;
51806;SDS011;37865;51.304;9.536;2023-06-26T03:53:18;15.88;;;9.48;;
51806;SDS011;37865;51.304;9.536;2023-06-26T03:55:43;10.45;;;9.43;;
51806;SDS011;37865;51.304;9.536;2023-06-26T03:58:09;14.20;;;9.35;;
51806;SDS011;37865;51.304;9.536;2023-06-26T04:00:34;17.30;;;9.45;;
51806;SDS011;37865;51.304;9.536;2023-06-26T04:02:59;10.75;;;9.15;;
51806;SDS011;37865;51.304;9.536;2023-06-26T04:05:24;12.30;;;9.48;;
51806;SDS011;37865;51.304;9.536;2023-06-26T04:07:50;16.17;;;9.48;;
51806;SDS011;37865;51.304;9.536;2023-06-26T04:10:16;10.95;;;9.95;;
51806;SDS011;37865;51.304;9.536;2023-06-26T04:12:42;14.63;;;10.00;;
51806;SDS011;37865;51.304;9.536;2023-06-26T04:15:07;10.15;;;8.98;;
51806;SDS011;37865;51.304;9.536;2023-06-26T04:17:33;21.45;;;9.70;;
51806;SDS011;37865;51.304;9.536;2023-06-26T04:19:58;13.00;;;7.40;;
51806;SDS011;37865;51.304;9.536;2023-06-26T04:22:24;11.93;;;7.70;;
51806;SDS011;37865;51.304;9.536;2023-06-26T04:24:50;14.82;;;8.32;;
51806;SDS011;37865;51.304;9.536;2023-06-26T04:27:16;9.30;;;8.40;;
51806;SDS011;37865;51.304;9.536;2023-06-26T04:29:42;10.15;;;8.32;;
51806;SDS011;37865;51.304;9.536;2023-06-26T04:32:07;9.20;;;7.57;;
51806;SDS011;37865;51.304;9.536;2023-06-26T04:34:33;21.80;;;9.65;;
51806;SDS011;37865;51.304;9.536;2023-06-26T04:37:00;11.45;;;7.80;;
51806;SDS011;37865;51.304;9.536;2023-06-26T04:39:25;15.20;;;8.95;;
51806;SDS011;37865;51.304;9.536;2023-06-26T04:41:50;12.43;;;9.50;;
51806;SDS011;37865;51.304;9.536;2023-06-26T04:44:16;15.35;;;8.85;;
51806;SDS011;37865;51.304;9.536;2023-06-26T04:46:41;18.50;;;8.18;;
51806;SDS011;37865;51.304;9.536;2023-06-26T04:49:07;10.05;;;8.68;;
51806;SDS011;37865;51.304;9.536;2023-06-26T04:51:33;14.60;;;8.25;;
51806;SDS011;37865;51.304;9.536;2023-06-26T04:53:58;11.20;;;8.90;;
51806;SDS011;37865;51.304;9.536;2023-06-26T04:56:23;11.20;;;9.32;;
51806;SDS011;37865;51.304;9.536;2023-06-26T04:58:49;13.75;;;8.85;;
51806;SDS011;37865;51.304;9.536;2023-06-26T05:01:14;13.10;;;8.38;;
51806;SDS011;37865;51.304;9.536;2023-06-26T05:03:39;13.75;;;7.57;;
51806;SDS011;37865;51.304;9.536;2023-06-26T05:06:05;13.18;;;9.02;;
51806;SDS011;37865;51.304;9.536;2023-06-26T05:08:30;10.18;;;8.48;;
51806;SDS011;37865;51.304;9.536;2023-06-26T05:10:55;11.13;;;9.70;;
51806;SDS011;37865;51.304;9.536;2023-06-26T05:13:24;20.60;;;9.30;;
51806;SDS011;37865;51.304;9.536;2023-06-26T05:15:50;11.15;;;8.02;;
51806;SDS011;37865;51.304;9.536;2023-06-26T05:18:16;12.63;;;8.18;;
51806;SDS011;37865;51.304;9.536;2023-06-26T05:20:41;12.20;;;8.65;;
51806;SDS011;37865;51.304;9.536;2023-06-26T05:23:07;8.48;;;7.68;;
51806;SDS011;37865;51.304;9.536;2023-06-26T05:25:32;10.55;;;7.95;;
51806;SDS011;37865;51.304;9.536;2023-06-26T05:27:59;12.13;;;7.82;;
51806;SDS011;37865;51.304;9.536;2023-06-26T05:30:25;11.95;;;9.32;;
51806;SDS011;37865;51.304;9.536;2023-06-26T05:32:51;11.65;;;7.88;;
51806;SDS011;37865;51.304;9.536;2023-06-26T05:35:20;18.35;;;9.40;;
51806;SDS011;37865;51.304;9.536;2023-06-26T05:37:48;15.63;;;9.57;;
51806;SDS011;37865;51.304;9.536;2023-06-26T05:40:15;12.40;;;8.77;;
51806;SDS011;37865;51.304;9.536;2023-06-26T05:42:41;15.23;;;8.05;;
51806;SDS011;37865;51.304;9.536;2023-06-26T05:45:07;9.98;;;8.85;;
51806;SDS011;37865;51.304;9.536;2023-06-26T05:47:32;10.15;;;8.25;;
51806;SDS011;37865;51.304;9.536;2023-06-26T05:49:58;12.48;;;9.50;;
51806;SDS011;37865;51.304;9.536;2023-06-26T05:52:24;16.38;;;9.20;;
51806;SDS011;37865;51.304;9.536;2023-06-26T05:54:49;17.60;;;8.73;;
51806;SDS011;37865;51.304;9.536;2023-06-26T05:57:15;14.90;;;7.45;;
51806;SDS011;37865;51.304;9.536;2023-06-26T05:59:41;10.73;;;9.02;;
51806;SDS011;37865;51.304;9.536;2023-06-26T06:02:08;9.68;;;8.68;;
51806;SDS011;37865;51.304;9.536;2023-06-26T06:04:33;9.25;;;7.55;;
51806;SDS011;37865;51.304;9.536;2023-06-26T06:07:00;13.75;;;7.95;;
51806;SDS011;37865;51.304;9.536;2023-06-26T06:09:25;8.82;;;7.93;;
51806;SDS011;37865;51.304;9.536;2023-06-26T06:11:50;10.43;;;8.70;;
51806;SDS011;37865;51.304;9.536;2023-06-26T06:14:16;8.93;;;8.05;;
51806;SDS011;37865;51.304;9.536;2023-06-26T06:16:41;10.52;;;7.55;;
51806;SDS011;37865;51.304;9.536;2023-06-26T06:19:06;11.32;;;7.75;;
51806;SDS011;37865;51.304;9.536;2023-06-26T06:21:32;14.32;;;8.52;;
51806;SDS011;37865;51.304;9.536;2023-06-26T06:23:58;15.73;;;7.50;;
51806;SDS011;37865;51.304;9.536;2023-06-26T06:26:23;10.77;;;7.28;;
51806;SDS011;37865;51.304;9.536;2023-06-26T06:28:48;9.90;;;7.53;;
51806;SDS011;37865;51.304;9.536;2023-06-26T06:31:14;10.02;;;7.65;;
51806;SDS011;37865;51.304;9.536;2023-06-26T06:33:39;13.80;;;7.05;;
51806;SDS011;37865;51.304;9.536;2023-06-26T06:36:04;7.35;;;6.35;;
51806;SDS011;37865;51.304;9.536;2023-06-26T06:38:30;10.55;;;6.57;;
51806;SDS011;37865;51.304;9.536;2023-06-26T06:40:55;11.93;;;6.60;;
51806;SDS011;37865;51.304;9.536;2023-06-26T06:43:20;9.27;;;7.35;;
51806;SDS011;37865;51.304;9.536;2023-06-26T06:45:46;11.13;;;6.68;;
51806;SDS011;37865;51.304;9.536;2023-06-26T06:48:11;9.95;;;7.30;;
51806;SDS011;37865;51.304;9.536;2023-06-26T06:50:36;8.75;;;7.13;;
51806;SDS011;37865;51.304;9.536;2023-06-26T06:53:02;12.70;;;6.47;;
51806;SDS011;37865;51.304;9.536;2023-06-26T06:55:27;11.43;;;6.80;;
51806;SDS011;37865;51.304;9.536;2023-06-26T06:57:53;16.67;;;7.03;;
51806;SDS011;37865;51.304;9.536;2023-06-26T07:00:18;11.35;;;6.53;;
51806;SDS011;37865;51.304;9.536;2023-06-26T07:02:44;9.70;;;6.55;;
51806;SDS011;37865;51.304;9.536;2023-06-26T07:05:10;5.20;;;4.63;;
51806;SDS011;37865;51.304;9.536;2023-06-26T07:07:36;15.73;;;5.72;;
51806;SDS011;37865;51.304;9.536;2023-06-26T07:10:04;8.60;;;6.07;;
51806;SDS011;37865;51.304;9.536;2023-06-26T07:12:37;17.13;;;7.78;;
51806;SDS011;37865;51.304;9.536;2023-06-26T07:15:03;8.40;;;5.30;;
51806;SDS011;37865;51.304;9.536;2023-06-26T07:17:30;8.27;;;5.55;;
51806;SDS011;37865;51.304;9.536;2023-06-26T07:19:56;6.43;;;4.68;;
51806;SDS011;37865;51.304;9.536;2023-06-26T07:22:22;9.93;;;5.05;;
51806;SDS011;37865;51.304;9.536;2023-06-26T07:24:48;7.53;;;5.70;;
51806;SDS011;37865;51.304;9.536;2023-06-26T07:27:14;9.15;;;5.90;;
51806;SDS011;37865;51.304;9.536;2023-06-26T07:29:40;6.75;;;4.72;;
51806;SDS011;37865;51.304;9.536;2023-06-26T07:32:06;5.05;;;4.60;;
51806;SDS011;37865;51.304;9.536;2023-06-26T07:34:32;5.15;;;4.28;;
51806;SDS011;37865;51.304;9.536;2023-06-26T07:36:57;4.63;;;3.95;;
51806;SDS011;37865;51.304;9.536;2023-06-26T07:39:22;12.05;;;5.82;;
51806;SDS011;37865;51.304;9.536;2023-06-26T07:41:47;8.65;;;6.30;;
51806;SDS011;37865;51.304;9.536;2023-06-26T07:44:13;12.23;;;4.57;;
51806;SDS011;37865;51.304;9.536;2023-06-26T07:46:39;5.78;;;4.85;;
51806;SDS011;37865;51.304;9.536;2023-06-26T07:49:04;7.32;;;6.63;;
51806;SDS011;37865;51.304;9.536;2023-06-26T07:51:30;8.48;;;5.70;;
51806;SDS011;37865;51.304;9.536;2023-06-26T07:53:55;7.72;;;5.90;;
51806;SDS011;37865;51.304;9.536;2023-06-26T07:56:20;14.45;;;6.97;;
51806;SDS011;37865;51.304;9.536;2023-06-26T07:58:45;8.65;;;5.65;;
51806;SDS011;37865;51.304;9.536;2023-06-26T08:01:11;6.88;;;5.63;;
51806;SDS011;37865;51.304;9.536;2023-06-26T08:03:36;11.68;;;6.68;;
51806;SDS011;37865;51.304;9.536;2023-06-26T08:06:01;6.47;;;4.43;;
51806;SDS011;37865;51.304;9.536;2023-06-26T08:08:28;8.27;;;6.80;;
51806;SDS011;37865;51.304;9.536;2023-06-26T08:10:53;6.00;;;5.05;;
51806;SDS011;37865;51.304;9.536;2023-06-26T08:13:19;6.93;;;6.20;;
51806;SDS011;37865;51.304;9.536;2023-06-26T08:15:44;6.50;;;5.47;;
51806;SDS011;37865;51.304;9.536;2023-06-26T08:18:10;4.65;;;4.25;;
51806;SDS011;37865;51.304;9.536;2023-06-26T08:20:35;10.18;;;6.25;;
51806;SDS011;37865;51.304;9.536;2023-06-26T08:23:02;7.32;;;5.95;;
51806;SDS011;37865;51.304;9.536;2023-06-26T08:25:28;8.23;;;6.13;;
51806;SDS011;37865;51.304;9.536;2023-06-26T08:27:54;10.45;;;6.68;;
51806;SDS011;37865;51.304;9.536;2023-06-26T08:30:20;5.78;;;5.25;;
51806;SDS011;37865;51.304;9.536;2023-06-26T08:32:46;9.40;;;5.75;;
51806;SDS011;37865;51.304;9.536;2023-06-26T08:35:11;8.35;;;5.78;;
51806;SDS011;37865;51.304;9.536;2023-06-26T08:37:37;8.10;;;6.70;;
51806;SDS011;37865;51.304;9.536;2023-06-26T08:40:03;5.75;;;5.15;;
51806;SDS011;37865;51.304;9.536;2023-06-26T08:42:29;5.35;;;4.85;;
51806;SDS011;37865;51.304;9.536;2023-06-26T08:44:54;7.00;;;6.13;;
51806;SDS011;37865;51.304;9.536;2023-06-26T08:47:19;14.48;;;6.55;;
51806;SDS011;37865;51.304;9.536;2023-06-26T08:49:46;8.00;;;6.53;;
51806;SDS011;37865;51.304;9.536;2023-06-26T08:52:24;6.38;;;5.65;;
51806;SDS011;37865;51.304;9.536;2023-06-26T08:54:58;6.78;;;5.70;;
51806;SDS011;37865;51.304;9.536;2023-06-26T08:57:26;7.00;;;6.30;;
51806;SDS011;37865;51.304;9.536;2023-06-26T08:59:53;8.18;;;6.30;;
51806;SDS011;37865;51.304;9.536;2023-06-26T09:02:18;15.88;;;7.47;;
51806;SDS011;37865;51.304;9.536;2023-06-26T09:04:46;7.18;;;6.47;;
51806;SDS011;37865;51.304;9.536;2023-06-26T09:07:12;7.78;;;6.97;;
51806;SDS011;37865;51.304;9.536;2023-06-26T09:09:38;8.88;;;4.25;;
51806;SDS011;37865;51.304;9.536;2023-06-26T09:12:03;9.57;;;7.30;;
51806;SDS011;37865;51.304;9.536;2023-06-26T09:14:29;8.73;;;6.68;;
51806;SDS011;37865;51.304;9.536;2023-06-26T09:16:54;7.68;;;5.38;;
51806;SDS011;37865;51.304;9.536;2023-06-26T09:19:20;7.88;;;5.85;;
51806;SDS011;37865;51.304;9.536;2023-06-26T09:21:45;6.03;;;5.47;;
51806;SDS011;37865;51.304;9.536;2023-06-26T09:24:14;6.57;;;5.93;;
51806;SDS011;37865;51.304;9.536;2023-06-26T09:26:41;7.82;;;6.43;;
51806;SDS011;37865;51.304;9.536;2023-06-26T09:29:08;9.98;;;6.38;;
51806;SDS011;37865;51.304;9.536;2023-06-26T09:31:37;7.55;;;5.72;;
51806;SDS011;37865;51.304;9.536;2023-06-26T09:34:03;7.38;;;6.63;;
51806;SDS011;37865;51.304;9.536;2023-06-26T09:36:29;8.70;;;6.47;;
51806;SDS011;37865;51.304;9.536;2023-06-26T09:39:05;6.95;;;6.25;;
51806;SDS011;37865;51.304;9.536;2023-06-26T09:41:35;10.57;;;6.78;;
51806;SDS011;37865;51.304;9.536;2023-06-26T09:44:02;10.45;;;7.30;;
51806;SDS011;37865;51.304;9.536;2023-06-26T09:46:28;10.98;;;6.90;;
51806;SDS011;37865;51.304;9.536;2023-06-26T09:48:57;11.70;;;6.18;;
51806;SDS011;37865;51.304;9.536;2023-06-26T09:51:29;7.63;;;6.93;;
51806;SDS011;37865;51.304;9.536;2023-06-26T09:53:55;6.95;;;6.20;;
51806;SDS011;37865;51.304;9.536;2023-06-26T09:56:21;8.85;;;6.80;;
51806;SDS011;37865;51.304;9.536;2023-06-26T09:58:47;9.82;;;6.75;;
51806;SDS011;37865;51.304;9.536;2023-06-26T10:01:14;8.27;;;6.47;;
51806;SDS011;37865;51.304;9.536;2023-06-26T10:03:39;10.20;;;8.05;;
51806;SDS011;37865;51.304;9.536;2023-06-26T10:06:04;5.93;;;4.70;;
51806;SDS011;37865;51.304;9.536;2023-06-26T10:08:30;8.10;;;7.30;;
51806;SDS011;37865;51.304;9.536;2023-06-26T10:10:58;7.38;;;6.32;;
51806;SDS011;37865;51.304;9.536;2023-06-26T10:13:35;12.10;;;7.22;;
51806;SDS011;37865;51.304;9.536;2023-06-26T10:16:04;7.00;;;6.10;;
51806;SDS011;37865;51.304;9.536;2023-06-26T10:18:32;7.43;;;6.45;;
51806;SDS011;37865;51.304;9.536;2023-06-26T10:21:00;7.80;;;7.00;;
51806;SDS011;37865;51.304;9.536;2023-06-26T10:23:28;6.85;;;6.15;;
51806;SDS011;37865;51.304;9.536;2023-06-26T10:25:55;10.32;;;7.05;;
51806;SDS011;37865;51.304;9.536;2023-06-26T10:28:23;7.53;;;6.70;;
51806;SDS011;37865;51.304;9.536;2023-06-26T10:30:51;16.33;;;7.22;;
51806;SDS011;37865;51.304;9.536;2023-06-26T10:33:19;6.68;;;5.70;;
51806;SDS011;37865;51.304;9.536;2023-06-26T10:35:45;7.05;;;6.35;;
51806;SDS011;37865;51.304;9.536;2023-06-26T10:38:10;6.72;;;5.95;;
51806;SDS011;37865;51.304;9.536;2023-06-26T10:40:43;15.82;;;8.27;;
51806;SDS011;37865;51.304;9.536;2023-06-26T10:43:11;12.18;;;7.35;;
51806;SDS011;37865;51.304;9.536;2023-06-26T10:45:43;18.95;;;7.97;;
51806;SDS011;37865;51.304;9.536;2023-06-26T10:48:15;22.38;;;7.80;;
51806;SDS011;37865;51.304;9.536;2023-06-26T10:50:41;12.40;;;8.02;;
51806;SDS011;37865;51.304;9.536;2023-06-26T10:55:51;10.48;;;8.27;;
51806;SDS011;37865;51.304;9.536;2023-06-26T11:06:26;12.23;;;8.98;;
51806;SDS011;37865;51.304;9.536;2023-06-26T11:08:52;15.65;;;10.57;;
51806;SDS011;37865;51.304;9.536;2023-06-26T11:14:20;11.70;;;9.65;;
51806;SDS011;37865;51.304;9.536;2023-06-26T11:16:46;13.73;;;9.60;;
51806;SDS011;37865;51.304;9.536;2023-06-26T11:19:13;14.13;;;11.73;;
51806;SDS011;37865;51.304;9.536;2023-06-26T11:21:39;20.10;;;9.98;;
51806;SDS011;37865;51.304;9.536;2023-06-26T11:24:08;15.48;;;9.73;;
51806;SDS011;37865;51.304;9.536;2023-06-26T11:26:38;17.48;;;9.35;;
51806;SDS011;37865;51.304;9.536;2023-06-26T11:29:04;16.70;;;9.98;;
51806;SDS011;37865;51.304;9.536;2023-06-26T11:31:33;14.38;;;9.43;;
51806;SDS011;37865;51.304;9.536;2023-06-26T11:34:01;13.32;;;8.55;;
51806;SDS011;37865;51.304;9.536;2023-06-26T11:36:29;9.95;;;7.63;;
51806;SDS011;37865;51.304;9.536;2023-06-26T11:39:00;13.32;;;8.95;;
51806;SDS011;37865;51.304;9.536;2023-06-26T11:41:29;16.70;;;10.32;;
51806;SDS011;37865;51.304;9.536;2023-06-26T11:43:59;19.33;;;8.60;;
51806;SDS011;37865;51.304;9.536;2023-06-26T11:46:26;13.55;;;9.23;;
51806;SDS011;37865;51.304;9.536;2023-06-26T11:48:52;8.88;;;7.68;;
51806;SDS011;37865;51.304;9.536;2023-06-26T11:51:18;10.00;;;8.23;;
51806;SDS011;37865;51.304;9.536;2023-06-26T11:53:44;11.23;;;8.50;;
51806;SDS011;37865;51.304;9.536;2023-06-26T11:56:11;10.75;;;8.68;;
51806;SDS011;37865;51.304;9.536;2023-06-26T12:01:36;14.35;;;8.75;;
51806;SDS011;37865;51.304;9.536;2023-06-26T12:04:06;14.30;;;9.48;;
51806;SDS011;37865;51.304;9.536;2023-06-26T12:06:34;9.23;;;7.85;;
51806;SDS011;37865;51.304;9.536;2023-06-26T12:09:02;24.15;;;9.15;;
51806;SDS011;37865;51.304;9.536;2023-06-26T12:11:31;11.18;;;8.30;;
51806;SDS011;37865;51.304;9.536;2023-06-26T12:13:59;9.68;;;8.45;;
51806;SDS011;37865;51.304;9.536;2023-06-26T12:16:25;11.98;;;8.45;;
51806;SDS011;37865;51.304;9.536;2023-06-26T12:18:51;9.32;;;7.22;;
51806;SDS011;37865;51.304;9.536;2023-06-26T12:23:59;12.63;;;7.55;;
51806;SDS011;37865;51.304;9.536;2023-06-26T12:26:25;13.30;;;9.02;;
51806;SDS011;37865;51.304;9.536;2023-06-26T12:28:51;9.73;;;8.18;;
51806;SDS011;37865;51.304;9.536;2023-06-26T12:31:16;21.45;;;8.27;;
51806;SDS011;37865;51.304;9.536;2023-06-26T12:33:45;14.77;;;8.93;;
51806;SDS011;37865;51.304;9.536;2023-06-26T12:36:11;13.18;;;9.25;;
51806;SDS011;37865;51.304;9.536;2023-06-26T12:38:37;16.38;;;9.32;;
51806;SDS011;37865;51.304;9.536;2023-06-26T12:41:02;13.10;;;8.88;;
51806;SDS011;37865;51.304;9.536;2023-06-26T12:43:28;11.18;;;8.88;;
51806;SDS011;37865;51.304;9.536;2023-06-26T12:45:54;17.50;;;9.27;;
51806;SDS011;37865;51.304;9.536;2023-06-26T12:48:35;10.82;;;9.57;;
51806;SDS011;37865;51.304;9.536;2023-06-26T12:51:09;14.30;;;9.15;;
51806;SDS011;37865;51.304;9.536;2023-06-26T12:53:35;12.40;;;10.40;;
51806;SDS011;37865;51.304;9.536;2023-06-26T12:56:00;12.57;;;10.07;;
51806;SDS011;37865;51.304;9.536;2023-06-26T12:58:25;20.65;;;8.55;;
51806;SDS011;37865;51.304;9.536;2023-06-26T13:00:51;14.65;;;9.50;;
51806;SDS011;37865;51.304;9.536;2023-06-26T13:03:18;11.68;;;8.32;;
51806;SDS011;37865;51.304;9.536;2023-06-26T13:05:45;9.98;;;7.75;;
51806;SDS011;37865;51.304;9.536;2023-06-26T13:08:11;10.75;;;8.93;;
51806;SDS011;37865;51.304;9.536;2023-06-26T13:10:36;8.93;;;7.60;;
51806;SDS011;37865;51.304;9.536;2023-06-26T13:13:01;22.05;;;10.43;;
51806;SDS011;37865;51.304;9.536;2023-06-26T13:15:27;11.73;;;8.70;;
51806;SDS011;37865;51.304;9.536;2023-06-26T13:17:53;12.85;;;8.70;;
51806;SDS011;37865;51.304;9.536;2023-06-26T13:20:18;11.45;;;8.68;;
51806;SDS011;37865;51.304;9.536;2023-06-26T13:22:43;9.98;;;7.45;;
51806;SDS011;37865;51.304;9.536;2023-06-26T13:25:10;14.82;;;8.88;;
51806;SDS011;37865;51.304;9.536;2023-06-26T13:27:36;11.15;;;8.70;;
51806;SDS011;37865;51.304;9.536;2023-06-26T13:30:01;9.68;;;7.72;;
51806;SDS011;37865;51.304;9.536;2023-06-26T13:32:27;14.30;;;7.80;;
51806;SDS011;37865;51.304;9.536;2023-06-26T13:34:52;11.07;;;8.10;;
51806;SDS011;37865;51.304;9.536;2023-06-26T13:37:19;10.00;;;7.88;;
51806;SDS011;37865;51.304;9.536;2023-06-26T13:39:44;12.27;;;8.63;;
51806;SDS011;37865;51.304;9.536;2023-06-26T13:42:14;12.52;;;8.00;;
51806;SDS011;37865;51.304;9.536;2023-06-26T13:44:40;11.75;;;7.30;;
51806;SDS011;37865;51.304;9.536;2023-06-26T13:47:06;9.25;;;6.78;;
51806;SDS011;37865;51.304;9.536;2023-06-26T13:49:31;10.43;;;7.28;;
51806;SDS011;37865;51.304;9.536;2023-06-26T13:51:56;10.43;;;6.28;;
51806;SDS011;37865;51.304;9.536;2023-06-26T13:54:22;7.78;;;5.70;;
51806;SDS011;37865;51.304;9.536;2023-06-26T13:56:47;8.45;;;5.43;;
51806;SDS011;37865;51.304;9.536;2023-06-26T13:59:12;6.78;;;5.75;;
51806;SDS011;37865;51.304;9.536;2023-06-26T14:01:37;11.10;;;5.00;;
51806;SDS011;37865;51.304;9.536;2023-06-26T14:04:04;8.60;;;4.63;;
51806;SDS011;37865;51.304;9.536;2023-06-26T14:06:30;5.95;;;4.25;;
51806;SDS011;37865;51.304;9.536;2023-06-26T14:08:57;11.25;;;5.07;;
51806;SDS011;37865;51.304;9.536;2023-06-26T14:11:22;8.07;;;5.65;;
51806;SDS011;37865;51.304;9.536;2023-06-26T14:13:48;6.18;;;4.78;;
51806;SDS011;37865;51.304;9.536;2023-06-26T14:16:13;8.35;;;5.28;;
51806;SDS011;37865;51.304;9.536;2023-06-26T14:18:40;7.45;;;5.63;;
51806;SDS011;37865;51.304;9.536;2023-06-26T14:21:05;6.30;;;4.35;;
51806;SDS011;37865;51.304;9.536;2023-06-26T14:23:30;7.50;;;5.20;;
51806;SDS011;37865;51.304;9.536;2023-06-26T14:25:56;7.35;;;4.32;;
51806;SDS011;37865;51.304;9.536;2023-06-26T14:28:21;5.68;;;4.35;;
51806;SDS011;37865;51.304;9.536;2023-06-26T14:30:46;7.35;;;4.93;;
51806;SDS011;37865;51.304;9.536;2023-06-26T14:33:11;4.90;;;4.00;;
51806;SDS011;37865;51.304;9.536;2023-06-26T14:35:37;6.63;;;4.32;;
51806;SDS011;37865;51.304;9.536;2023-06-26T14:38:02;6.63;;;4.75;;
51806;SDS011;37865;51.304;9.536;2023-06-26T14:40:27;5.63;;;3.53;;
51806;SDS011;37865;51.304;9.536;2023-06-26T14:42:53;12.60;;;4.10;;
51806;SDS011;37865;51.304;9.536;2023-06-26T14:45:18;16.95;;;4.78;;
51806;SDS011;37865;51.304;9.536;2023-06-26T14:47:44;8.27;;;4.60;;
51806;SDS011;37865;51.304;9.536;2023-06-26T14:50:09;8.50;;;5.20;;
51806;SDS011;37865;51.304;9.536;2023-06-26T14:52:34;6.15;;;3.88;;
51806;SDS011;37865;51.304;9.536;2023-06-26T14:55:00;4.32;;;3.20;;